sensor_id;sensor_type;location;lat;lon;timestamp;P1;durP1;ratioP1;P2;durP2;ratioP2
54557;SDS011;40452;50.080;20.040;2023-08-01T02:19:01;5.13;;;2.70;;
54557;SDS011;40452;50.080;20.040;2023-08-01T02:21:26;5.60;;;2.53;;
54557;SDS011;40452;50.080;20.040;2023-08-01T02:23:52;5.88;;;3.13;;
54557;SDS011;40452;50.080;20.040;2023-08-01T02:26:17;5.97;;;3.05;;
54557;SDS011;40452;50.080;20.040;2023-08-01T02:28:43;7.63;;;2.83;;
54557;SDS011;40452;50.080;20.040;2023-08-01T02:31:09;7.30;;;2.78;;
54557;SDS011;40452;50.080;20.040;2023-08-01T02:33:34;6.00;;;2.60;;
54557;SDS011;40452;50.080;20.040;2023-08-01T02:36:00;4.10;;;2.55;;
54557;SDS011;40452;50.080;20.040;2023-08-01T02:38:25;4.57;;;2.58;;
54557;SDS011;40452;50.080;20.040;2023-08-01T02:40:51;9.73;;;3.08;;
54557;SDS011;40452;50.080;20.040;2023-08-01T02:43:16;8.88;;;3.65;;
54557;SDS011;40452;50.080;20.040;2023-08-01T02:45:42;7.55;;;3.38;;
54557;SDS011;40452;50.080;20.040;2023-08-01T02:48:07;7.05;;;3.10;;
54557;SDS011;40452;50.080;20.040;2023-08-01T02:50:33;7.13;;;3.17;;
54557;SDS011;40452;50.080;20.040;2023-08-01T02:52:58;8.95;;;2.90;;
54557;SDS011;40452;50.080;20.040;2023-08-01T02:55:24;10.80;;;2.90;;
54557;SDS011;40452;50.080;20.040;2023-08-01T02:57:50;6.95;;;3.00;;
54557;SDS011;40452;50.080;20.040;2023-08-01T03:00:15;5.53;;;2.85;;
54557;SDS011;40452;50.080;20.040;2023-08-01T03:02:42;9.90;;;3.28;;
54557;SDS011;40452;50.080;20.040;2023-08-01T03:05:08;6.82;;;3.10;;
54557;SDS011;40452;50.080;20.040;2023-08-01T03:07:34;7.80;;;3.10;;
54557;SDS011;40452;50.080;20.040;2023-08-01T03:10:00;10.40;;;3.10;;
54557;SDS011;40452;50.080;20.040;2023-08-01T03:12:26;8.70;;;3.60;;
54557;SDS011;40452;50.080;20.040;2023-08-01T03:14:52;8.05;;;3.30;;
54557;SDS011;40452;50.080;20.040;2023-08-01T03:17:17;8.43;;;3.35;;
54557;SDS011;40452;50.080;20.040;2023-08-01T03:19:43;7.55;;;3.30;;
54557;SDS011;40452;50.080;20.040;2023-08-01T03:22:09;8.55;;;2.97;;
54557;SDS011;40452;50.080;20.040;2023-08-01T03:24:35;8.18;;;3.17;;
54557;SDS011;40452;50.080;20.040;2023-08-01T03:27:01;6.97;;;2.90;;
54557;SDS011;40452;50.080;20.040;2023-08-01T03:29:26;9.57;;;3.38;;
54557;SDS011;40452;50.080;20.040;2023-08-01T03:31:52;6.82;;;2.97;;
54557;SDS011;40452;50.080;20.040;2023-08-01T03:34:18;8.00;;;3.00;;
54557;SDS011;40452;50.080;20.040;2023-08-01T03:36:43;6.93;;;2.97;;
54557;SDS011;40452;50.080;20.040;2023-08-01T03:39:09;6.47;;;3.10;;
54557;SDS011;40452;50.080;20.040;2023-08-01T03:41:35;10.65;;;3.63;;
54557;SDS011;40452;50.080;20.040;2023-08-01T03:44:02;13.82;;;3.30;;
54557;SDS011;40452;50.080;20.040;2023-08-01T03:46:27;14.05;;;3.55;;
54557;SDS011;40452;50.080;20.040;2023-08-01T03:48:53;6.45;;;3.35;;
54557;SDS011;40452;50.080;20.040;2023-08-01T03:51:19;7.20;;;3.10;;
54557;SDS011;40452;50.080;20.040;2023-08-01T03:53:45;11.40;;;3.83;;
54557;SDS011;40452;50.080;20.040;2023-08-01T03:56:11;8.40;;;3.33;;
54557;SDS011;40452;50.080;20.040;2023-08-01T03:58:36;8.15;;;3.30;;
54557;SDS011;40452;50.080;20.040;2023-08-01T04:01:02;7.97;;;3.35;;
54557;SDS011;40452;50.080;20.040;2023-08-01T04:03:27;8.80;;;3.38;;
54557;SDS011;40452;50.080;20.040;2023-08-01T04:05:53;11.10;;;3.95;;
54557;SDS011;40452;50.080;20.040;2023-08-01T04:08:19;14.25;;;3.90;;
54557;SDS011;40452;50.080;20.040;2023-08-01T04:10:45;9.63;;;3.92;;
54557;SDS011;40452;50.080;20.040;2023-08-01T04:13:10;12.85;;;4.25;;
54557;SDS011;40452;50.080;20.040;2023-08-01T04:15:36;9.52;;;3.70;;
54557;SDS011;40452;50.080;20.040;2023-08-01T04:18:01;11.73;;;3.92;;
54557;SDS011;40452;50.080;20.040;2023-08-01T04:20:27;10.38;;;3.50;;
54557;SDS011;40452;50.080;20.040;2023-08-01T04:22:54;11.68;;;3.88;;
54557;SDS011;40452;50.080;20.040;2023-08-01T04:25:19;7.95;;;3.45;;
54557;SDS011;40452;50.080;20.040;2023-08-01T04:27:45;9.95;;;3.55;;
54557;SDS011;40452;50.080;20.040;2023-08-01T04:30:10;14.43;;;4.00;;
54557;SDS011;40452;50.080;20.040;2023-08-01T04:32:36;11.73;;;3.60;;
54557;SDS011;40452;50.080;20.040;2023-08-01T04:35:02;11.25;;;3.22;;
54557;SDS011;40452;50.080;20.040;2023-08-01T04:37:28;12.43;;;2.97;;
54557;SDS011;40452;50.080;20.040;2023-08-01T04:39:53;10.30;;;3.78;;
54557;SDS011;40452;50.080;20.040;2023-08-01T04:42:19;12.90;;;4.05;;
54557;SDS011;40452;50.080;20.040;2023-08-01T04:44:44;7.25;;;3.47;;
54557;SDS011;40452;50.080;20.040;2023-08-01T04:47:10;8.82;;;3.45;;
54557;SDS011;40452;50.080;20.040;2023-08-01T04:49:36;10.38;;;3.42;;
54557;SDS011;40452;50.080;20.040;2023-08-01T04:52:02;9.38;;;3.88;;
54557;SDS011;40452;50.080;20.040;2023-08-01T04:54:27;8.70;;;3.50;;
54557;SDS011;40452;50.080;20.040;2023-08-01T04:56:53;9.85;;;3.83;;
54557;SDS011;40452;50.080;20.040;2023-08-01T04:59:18;14.57;;;3.97;;
54557;SDS011;40452;50.080;20.040;2023-08-01T05:01:47;15.75;;;4.10;;
54557;SDS011;40452;50.080;20.040;2023-08-01T05:04:12;9.82;;;3.47;;
54557;SDS011;40452;50.080;20.040;2023-08-01T05:06:38;10.35;;;3.42;;
54557;SDS011;40452;50.080;20.040;2023-08-01T05:09:05;11.88;;;4.25;;
54557;SDS011;40452;50.080;20.040;2023-08-01T05:11:31;12.48;;;3.85;;
54557;SDS011;40452;50.080;20.040;2023-08-01T05:13:57;18.33;;;4.13;;
54557;SDS011;40452;50.080;20.040;2023-08-01T05:16:22;19.00;;;4.28;;
54557;SDS011;40452;50.080;20.040;2023-08-01T05:18:48;11.98;;;4.03;;
54557;SDS011;40452;50.080;20.040;2023-08-01T05:21:14;12.75;;;4.00;;
54557;SDS011;40452;50.080;20.040;2023-08-01T05:23:39;14.15;;;4.55;;
54557;SDS011;40452;50.080;20.040;2023-08-01T05:26:05;19.33;;;4.50;;
54557;SDS011;40452;50.080;20.040;2023-08-01T05:28:30;16.40;;;4.55;;
54557;SDS011;40452;50.080;20.040;2023-08-01T05:30:56;12.07;;;4.47;;
54557;SDS011;40452;50.080;20.040;2023-08-01T05:33:21;16.20;;;4.70;;
54557;SDS011;40452;50.080;20.040;2023-08-01T05:35:48;13.77;;;4.68;;
54557;SDS011;40452;50.080;20.040;2023-08-01T05:38:14;12.82;;;4.60;;
54557;SDS011;40452;50.080;20.040;2023-08-01T05:40:39;12.50;;;4.60;;
54557;SDS011;40452;50.080;20.040;2023-08-01T05:43:05;322.48;;;15.02;;
54557;SDS011;40452;50.080;20.040;2023-08-01T05:45:33;34.65;;;5.60;;
54557;SDS011;40452;50.080;20.040;2023-08-01T05:48:02;27.85;;;4.57;;
54557;SDS011;40452;50.080;20.040;2023-08-01T05:50:27;16.20;;;3.83;;
54557;SDS011;40452;50.080;20.040;2023-08-01T05:52:53;17.58;;;3.65;;
54557;SDS011;40452;50.080;20.040;2023-08-01T05:55:19;14.65;;;3.40;;
54557;SDS011;40452;50.080;20.040;2023-08-01T05:57:44;15.15;;;3.10;;
54557;SDS011;40452;50.080;20.040;2023-08-01T06:00:10;11.15;;;3.03;;
54557;SDS011;40452;50.080;20.040;2023-08-01T06:02:36;9.65;;;2.92;;
54557;SDS011;40452;50.080;20.040;2023-08-01T06:05:02;8.20;;;2.85;;
54557;SDS011;40452;50.080;20.040;2023-08-01T06:07:28;7.88;;;3.10;;
54557;SDS011;40452;50.080;20.040;2023-08-01T06:09:54;10.95;;;2.78;;
54557;SDS011;40452;50.080;20.040;2023-08-01T06:12:19;12.30;;;3.05;;
54557;SDS011;40452;50.080;20.040;2023-08-01T06:14:45;7.55;;;2.83;;
54557;SDS011;40452;50.080;20.040;2023-08-01T06:17:12;10.05;;;2.90;;
54557;SDS011;40452;50.080;20.040;2023-08-01T06:19:37;12.30;;;2.78;;
54557;SDS011;40452;50.080;20.040;2023-08-01T06:22:03;6.75;;;2.50;;
54557;SDS011;40452;50.080;20.040;2023-08-01T06:24:29;10.02;;;2.50;;
54557;SDS011;40452;50.080;20.040;2023-08-01T06:26:54;6.25;;;2.42;;
54557;SDS011;40452;50.080;20.040;2023-08-01T06:29:20;5.57;;;2.58;;
54557;SDS011;40452;50.080;20.040;2023-08-01T06:31:45;6.78;;;2.20;;
54557;SDS011;40452;50.080;20.040;2023-08-01T06:34:11;4.72;;;1.63;;
54557;SDS011;40452;50.080;20.040;2023-08-01T06:36:37;8.88;;;2.45;;
54557;SDS011;40452;50.080;20.040;2023-08-01T06:39:02;5.28;;;2.10;;
54557;SDS011;40452;50.080;20.040;2023-08-01T06:41:28;5.85;;;2.25;;
54557;SDS011;40452;50.080;20.040;2023-08-01T06:43:54;5.53;;;2.70;;
54557;SDS011;40452;50.080;20.040;2023-08-01T06:46:19;6.90;;;3.10;;
54557;SDS011;40452;50.080;20.040;2023-08-01T06:48:45;5.45;;;2.45;;
54557;SDS011;40452;50.080;20.040;2023-08-01T06:51:10;6.18;;;3.60;;
54557;SDS011;40452;50.080;20.040;2023-08-01T06:53:36;7.30;;;2.65;;
54557;SDS011;40452;50.080;20.040;2023-08-01T06:56:02;7.55;;;2.58;;
54557;SDS011;40452;50.080;20.040;2023-08-01T06:58:27;5.57;;;2.50;;
54557;SDS011;40452;50.080;20.040;2023-08-01T07:00:53;5.50;;;2.20;;
54557;SDS011;40452;50.080;20.040;2023-08-01T07:03:18;7.05;;;2.30;;
54557;SDS011;40452;50.080;20.040;2023-08-01T07:05:44;4.70;;;1.90;;
54557;SDS011;40452;50.080;20.040;2023-08-01T07:08:09;7.22;;;2.10;;
54557;SDS011;40452;50.080;20.040;2023-08-01T07:10:35;5.93;;;2.22;;
54557;SDS011;40452;50.080;20.040;2023-08-01T07:13:01;4.18;;;2.03;;
54557;SDS011;40452;50.080;20.040;2023-08-01T07:15:30;4.32;;;2.00;;
54557;SDS011;40452;50.080;20.040;2023-08-01T07:17:57;4.35;;;1.92;;
54557;SDS011;40452;50.080;20.040;2023-08-01T07:20:22;2.53;;;1.90;;
54557;SDS011;40452;50.080;20.040;2023-08-01T07:22:48;3.20;;;1.70;;
54557;SDS011;40452;50.080;20.040;2023-08-01T07:25:13;4.20;;;1.80;;
54557;SDS011;40452;50.080;20.040;2023-08-01T07:27:40;4.85;;;1.70;;
54557;SDS011;40452;50.080;20.040;2023-08-01T07:30:06;3.60;;;2.28;;
54557;SDS011;40452;50.080;20.040;2023-08-01T07:32:32;4.40;;;2.15;;
54557;SDS011;40452;50.080;20.040;2023-08-01T14:22:42;4.30;;;2.05;;
54557;SDS011;40452;50.080;20.040;2023-08-01T14:25:08;3.65;;;2.53;;
54557;SDS011;40452;50.080;20.040;2023-08-01T14:27:34;4.25;;;2.40;;
54557;SDS011;40452;50.080;20.040;2023-08-01T14:29:59;4.00;;;2.13;;
54557;SDS011;40452;50.080;20.040;2023-08-01T14:32:25;3.90;;;2.30;;
54557;SDS011;40452;50.080;20.040;2023-08-01T14:34:51;3.05;;;2.20;;
54557;SDS011;40452;50.080;20.040;2023-08-01T14:37:16;3.63;;;2.30;;
54557;SDS011;40452;50.080;20.040;2023-08-01T14:39:42;3.50;;;2.10;;
54557;SDS011;40452;50.080;20.040;2023-08-01T14:42:07;3.92;;;2.20;;
54557;SDS011;40452;50.080;20.040;2023-08-01T14:44:33;3.92;;;2.60;;
54557;SDS011;40452;50.080;20.040;2023-08-01T14:46:58;3.70;;;2.33;;
54557;SDS011;40452;50.080;20.040;2023-08-01T14:49:24;3.70;;;2.55;;
54557;SDS011;40452;50.080;20.040;2023-08-01T14:51:52;4.03;;;2.25;;
54557;SDS011;40452;50.080;20.040;2023-08-01T14:54:18;2.33;;;2.00;;
54557;SDS011;40452;50.080;20.040;2023-08-01T14:56:44;3.58;;;2.25;;
54557;SDS011;40452;50.080;20.040;2023-08-01T14:59:09;3.67;;;2.15;;
54557;SDS011;40452;50.080;20.040;2023-08-01T15:01:35;3.55;;;2.13;;
54557;SDS011;40452;50.080;20.040;2023-08-01T15:04:00;3.35;;;2.10;;
54557;SDS011;40452;50.080;20.040;2023-08-01T15:06:26;10.35;;;2.35;;
54557;SDS011;40452;50.080;20.040;2023-08-01T15:08:52;3.45;;;2.00;;
54557;SDS011;40452;50.080;20.040;2023-08-01T15:11:17;3.22;;;2.20;;
54557;SDS011;40452;50.080;20.040;2023-08-01T15:13:43;3.65;;;2.13;;
54557;SDS011;40452;50.080;20.040;2023-08-01T15:16:09;2.90;;;2.00;;
54557;SDS011;40452;50.080;20.040;2023-08-01T15:18:36;4.18;;;2.03;;
54557;SDS011;40452;50.080;20.040;2023-08-01T15:21:02;3.58;;;2.08;;
54557;SDS011;40452;50.080;20.040;2023-08-01T15:23:27;5.60;;;1.90;;
54557;SDS011;40452;50.080;20.040;2023-08-01T15:25:57;4.15;;;2.28;;
54557;SDS011;40452;50.080;20.040;2023-08-01T15:28:24;4.38;;;2.20;;
54557;SDS011;40452;50.080;20.040;2023-08-01T15:33:28;4.63;;;2.20;;
54557;SDS011;40452;50.080;20.040;2023-08-01T15:35:58;4.28;;;2.20;;
54557;SDS011;40452;50.080;20.040;2023-08-01T15:38:30;3.70;;;2.13;;
54557;SDS011;40452;50.080;20.040;2023-08-01T15:40:56;4.38;;;2.22;;
54557;SDS011;40452;50.080;20.040;2023-08-01T15:43:22;2.90;;;2.00;;
54557;SDS011;40452;50.080;20.040;2023-08-01T15:45:50;3.60;;;2.22;;
54557;SDS011;40452;50.080;20.040;2023-08-01T15:48:16;5.68;;;2.60;;
54557;SDS011;40452;50.080;20.040;2023-08-01T15:50:41;3.65;;;1.92;;
54557;SDS011;40452;50.080;20.040;2023-08-01T15:53:07;3.63;;;2.22;;
54557;SDS011;40452;50.080;20.040;2023-08-01T15:55:33;6.32;;;2.45;;
54557;SDS011;40452;50.080;20.040;2023-08-01T15:57:59;4.15;;;2.40;;
54557;SDS011;40452;50.080;20.040;2023-08-01T16:00:24;4.43;;;2.30;;
54557;SDS011;40452;50.080;20.040;2023-08-01T16:02:50;4.65;;;2.28;;
54557;SDS011;40452;50.080;20.040;2023-08-01T16:05:15;3.22;;;2.08;;
54557;SDS011;40452;50.080;20.040;2023-08-01T16:07:41;3.75;;;2.10;;
54557;SDS011;40452;50.080;20.040;2023-08-01T16:10:07;3.95;;;2.30;;
54557;SDS011;40452;50.080;20.040;2023-08-01T16:12:32;4.28;;;2.13;;
54557;SDS011;40452;50.080;20.040;2023-08-01T16:14:58;4.32;;;2.30;;
54557;SDS011;40452;50.080;20.040;2023-08-01T16:17:23;6.80;;;2.47;;
54557;SDS011;40452;50.080;20.040;2023-08-01T16:19:49;5.47;;;2.20;;
54557;SDS011;40452;50.080;20.040;2023-08-01T16:22:14;4.35;;;2.20;;
54557;SDS011;40452;50.080;20.040;2023-08-01T16:24:40;5.10;;;2.13;;
54557;SDS011;40452;50.080;20.040;2023-08-01T16:27:05;5.53;;;2.30;;
54557;SDS011;40452;50.080;20.040;2023-08-01T16:29:32;6.80;;;3.92;;
54557;SDS011;40452;50.080;20.040;2023-08-01T16:31:58;3.97;;;2.33;;
54557;SDS011;40452;50.080;20.040;2023-08-01T16:34:24;6.05;;;2.58;;
54557;SDS011;40452;50.080;20.040;2023-08-01T16:36:49;4.88;;;3.00;;
54557;SDS011;40452;50.080;20.040;2023-08-01T16:39:15;6.18;;;2.88;;
54557;SDS011;40452;50.080;20.040;2023-08-01T16:41:40;5.03;;;2.38;;
54557;SDS011;40452;50.080;20.040;2023-08-01T16:44:06;4.53;;;2.67;;
54557;SDS011;40452;50.080;20.040;2023-08-01T16:46:31;4.68;;;2.80;;
54557;SDS011;40452;50.080;20.040;2023-08-01T16:48:57;3.60;;;2.67;;
54557;SDS011;40452;50.080;20.040;2023-08-01T16:51:23;3.28;;;2.47;;
54557;SDS011;40452;50.080;20.040;2023-08-01T16:53:49;4.35;;;2.80;;
54557;SDS011;40452;50.080;20.040;2023-08-01T16:56:14;3.47;;;2.15;;
54557;SDS011;40452;50.080;20.040;2023-08-01T16:58:40;5.78;;;2.50;;
54557;SDS011;40452;50.080;20.040;2023-08-01T17:01:05;3.95;;;2.40;;
54557;SDS011;40452;50.080;20.040;2023-08-01T17:03:33;4.82;;;2.40;;
54557;SDS011;40452;50.080;20.040;2023-08-01T17:06:00;4.57;;;1.98;;
54557;SDS011;40452;50.080;20.040;2023-08-01T17:08:25;4.38;;;2.45;;
54557;SDS011;40452;50.080;20.040;2023-08-01T17:10:51;3.55;;;2.58;;
54557;SDS011;40452;50.080;20.040;2023-08-01T17:13:16;6.80;;;2.53;;
54557;SDS011;40452;50.080;20.040;2023-08-01T17:15:42;2.92;;;2.22;;
54557;SDS011;40452;50.080;20.040;2023-08-01T17:18:08;6.85;;;2.97;;
54557;SDS011;40452;50.080;20.040;2023-08-01T17:20:33;4.72;;;2.83;;
54557;SDS011;40452;50.080;20.040;2023-08-01T17:23:01;3.90;;;2.40;;
54557;SDS011;40452;50.080;20.040;2023-08-01T17:25:27;7.15;;;2.95;;
54557;SDS011;40452;50.080;20.040;2023-08-01T17:27:52;4.32;;;2.35;;
54557;SDS011;40452;50.080;20.040;2023-08-01T17:30:21;5.55;;;2.78;;
54557;SDS011;40452;50.080;20.040;2023-08-01T17:32:46;3.95;;;2.47;;
54557;SDS011;40452;50.080;20.040;2023-08-01T17:35:13;5.28;;;2.60;;
54557;SDS011;40452;50.080;20.040;2023-08-01T17:37:39;6.18;;;2.38;;
54557;SDS011;40452;50.080;20.040;2023-08-01T17:40:05;12.60;;;3.17;;
54557;SDS011;40452;50.080;20.040;2023-08-01T17:42:33;4.55;;;2.70;;
54557;SDS011;40452;50.080;20.040;2023-08-01T17:44:59;8.48;;;3.08;;
54557;SDS011;40452;50.080;20.040;2023-08-01T17:47:25;8.23;;;3.20;;
54557;SDS011;40452;50.080;20.040;2023-08-01T17:49:52;6.30;;;3.38;;
54557;SDS011;40452;50.080;20.040;2023-08-01T17:52:18;5.28;;;2.92;;
54557;SDS011;40452;50.080;20.040;2023-08-01T17:54:43;7.40;;;2.72;;
54557;SDS011;40452;50.080;20.040;2023-08-01T17:57:09;4.47;;;2.90;;
54557;SDS011;40452;50.080;20.040;2023-08-01T17:59:34;5.00;;;2.65;;
54557;SDS011;40452;50.080;20.040;2023-08-01T18:02:03;5.88;;;2.60;;
54557;SDS011;40452;50.080;20.040;2023-08-01T18:04:32;7.60;;;2.70;;
54557;SDS011;40452;50.080;20.040;2023-08-01T18:06:59;5.45;;;2.28;;
54557;SDS011;40452;50.080;20.040;2023-08-01T18:09:24;5.00;;;2.30;;
54557;SDS011;40452;50.080;20.040;2023-08-01T18:11:50;3.65;;;2.30;;
54557;SDS011;40452;50.080;20.040;2023-08-01T18:14:16;4.85;;;2.63;;
54557;SDS011;40452;50.080;20.040;2023-08-01T18:16:42;5.20;;;2.83;;
54557;SDS011;40452;50.080;20.040;2023-08-01T18:19:07;5.53;;;2.40;;
54557;SDS011;40452;50.080;20.040;2023-08-01T18:21:33;3.00;;;1.90;;
54557;SDS011;40452;50.080;20.040;2023-08-01T18:23:59;4.60;;;2.30;;
54557;SDS011;40452;50.080;20.040;2023-08-01T18:26:25;6.35;;;2.50;;
54557;SDS011;40452;50.080;20.040;2023-08-01T18:28:52;4.35;;;2.35;;
54557;SDS011;40452;50.080;20.040;2023-08-01T18:31:18;3.85;;;2.10;;
54557;SDS011;40452;50.080;20.040;2023-08-01T18:33:46;5.25;;;2.28;;
54557;SDS011;40452;50.080;20.040;2023-08-01T18:36:12;3.83;;;2.08;;
54557;SDS011;40452;50.080;20.040;2023-08-01T18:38:39;5.40;;;1.98;;
54557;SDS011;40452;50.080;20.040;2023-08-01T18:41:05;4.43;;;2.08;;
54557;SDS011;40452;50.080;20.040;2023-08-01T18:43:31;5.20;;;2.15;;
54557;SDS011;40452;50.080;20.040;2023-08-01T18:45:57;5.30;;;2.10;;
54557;SDS011;40452;50.080;20.040;2023-08-01T18:48:23;7.35;;;2.30;;
54557;SDS011;40452;50.080;20.040;2023-08-01T18:50:49;5.32;;;2.50;;
54557;SDS011;40452;50.080;20.040;2023-08-01T18:53:15;4.05;;;2.13;;
54557;SDS011;40452;50.080;20.040;2023-08-01T18:55:40;5.85;;;2.50;;
54557;SDS011;40452;50.080;20.040;2023-08-01T18:58:06;4.35;;;2.08;;
54557;SDS011;40452;50.080;20.040;2023-08-01T19:00:32;7.00;;;2.20;;
54557;SDS011;40452;50.080;20.040;2023-08-01T19:02:58;3.65;;;2.28;;
54557;SDS011;40452;50.080;20.040;2023-08-01T19:05:24;6.03;;;2.25;;
54557;SDS011;40452;50.080;20.040;2023-08-01T19:07:50;9.23;;;2.80;;
54557;SDS011;40452;50.080;20.040;2023-08-01T19:10:16;4.07;;;2.05;;
54557;SDS011;40452;50.080;20.040;2023-08-01T19:12:42;5.60;;;2.33;;
54557;SDS011;40452;50.080;20.040;2023-08-01T19:15:08;7.88;;;2.13;;
54557;SDS011;40452;50.080;20.040;2023-08-01T19:17:34;4.55;;;2.45;;
54557;SDS011;40452;50.080;20.040;2023-08-01T19:20:00;4.60;;;2.00;;
54557;SDS011;40452;50.080;20.040;2023-08-01T19:22:26;4.22;;;2.00;;
54557;SDS011;40452;50.080;20.040;2023-08-01T19:24:52;3.63;;;2.10;;
54557;SDS011;40452;50.080;20.040;2023-08-01T19:27:18;5.90;;;2.00;;
54557;SDS011;40452;50.080;20.040;2023-08-01T19:29:48;3.83;;;1.80;;
54557;SDS011;40452;50.080;20.040;2023-08-01T19:32:15;6.78;;;1.92;;
54557;SDS011;40452;50.080;20.040;2023-08-01T19:34:50;3.00;;;1.95;;
54557;SDS011;40452;50.080;20.040;2023-08-01T19:37:16;3.92;;;2.22;;
54557;SDS011;40452;50.080;20.040;2023-08-01T19:39:43;3.35;;;2.17;;
54557;SDS011;40452;50.080;20.040;2023-08-01T19:42:09;2.50;;;1.73;;
54557;SDS011;40452;50.080;20.040;2023-08-01T19:44:36;5.78;;;2.22;;
54557;SDS011;40452;50.080;20.040;2023-08-01T19:47:02;3.35;;;2.10;;
54557;SDS011;40452;50.080;20.040;2023-08-01T19:49:31;2.97;;;1.90;;
54557;SDS011;40452;50.080;20.040;2023-08-01T19:51:57;2.78;;;1.90;;
54557;SDS011;40452;50.080;20.040;2023-08-01T19:54:22;4.13;;;1.98;;
54557;SDS011;40452;50.080;20.040;2023-08-01T19:56:48;3.10;;;2.13;;
54557;SDS011;40452;50.080;20.040;2023-08-01T19:59:14;3.65;;;1.88;;
54557;SDS011;40452;50.080;20.040;2023-08-01T20:01:40;4.93;;;1.95;;
54557;SDS011;40452;50.080;20.040;2023-08-01T20:04:07;2.90;;;1.75;;
54557;SDS011;40452;50.080;20.040;2023-08-01T20:06:33;2.92;;;1.80;;
54557;SDS011;40452;50.080;20.040;2023-08-01T20:08:58;3.83;;;2.03;;
54557;SDS011;40452;50.080;20.040;2023-08-01T20:11:24;3.40;;;2.00;;
54557;SDS011;40452;50.080;20.040;2023-08-01T20:13:49;3.92;;;1.88;;
54557;SDS011;40452;50.080;20.040;2023-08-01T20:16:16;4.53;;;1.92;;
54557;SDS011;40452;50.080;20.040;2023-08-01T20:18:41;4.22;;;2.15;;
54557;SDS011;40452;50.080;20.040;2023-08-01T20:21:07;4.32;;;1.95;;
54557;SDS011;40452;50.080;20.040;2023-08-01T20:23:32;9.35;;;2.30;;
54557;SDS011;40452;50.080;20.040;2023-08-01T20:25:58;4.53;;;1.85;;
54557;SDS011;40452;50.080;20.040;2023-08-01T20:28:24;4.55;;;1.90;;
54557;SDS011;40452;50.080;20.040;2023-08-01T20:30:49;3.38;;;2.13;;
54557;SDS011;40452;50.080;20.040;2023-08-01T20:33:16;3.22;;;1.90;;
54557;SDS011;40452;50.080;20.040;2023-08-01T20:35:42;3.53;;;1.77;;
54557;SDS011;40452;50.080;20.040;2023-08-01T20:38:08;2.67;;;1.63;;
54557;SDS011;40452;50.080;20.040;2023-08-01T20:40:34;3.95;;;2.05;;
54557;SDS011;40452;50.080;20.040;2023-08-01T20:43:01;4.18;;;2.00;;
54557;SDS011;40452;50.080;20.040;2023-08-01T20:45:27;3.13;;;1.83;;
54557;SDS011;40452;50.080;20.040;2023-08-01T20:47:53;3.13;;;1.90;;
54557;SDS011;40452;50.080;20.040;2023-08-01T20:50:19;4.10;;;2.20;;
54557;SDS011;40452;50.080;20.040;2023-08-01T20:52:45;3.88;;;1.92;;
54557;SDS011;40452;50.080;20.040;2023-08-01T20:55:10;4.00;;;1.83;;
54557;SDS011;40452;50.080;20.040;2023-08-01T20:57:36;3.83;;;1.88;;
54557;SDS011;40452;50.080;20.040;2023-08-01T21:00:02;3.05;;;2.00;;
54557;SDS011;40452;50.080;20.040;2023-08-01T21:02:28;4.03;;;2.10;;
54557;SDS011;40452;50.080;20.040;2023-08-01T21:04:53;3.40;;;1.80;;
